Trout Lake, Michigan
Current Conditions -  °F | °C
As of 8:54 AM on Friday 24 Oct 2014 (Local Time) from KERY Reporting Station
Overcast Overcast  
Wind Chill: 43°   Ceiling: 500
Heat Index: 47°   Visibility: 7mi
Dew Point: 46°   Wind: 8mph
Humidity: 97%   Direction: 240°WSW
Pressure: 29.98"   Gusts: NA
Location:  46.19°N, 85.02°W
Report Text: KERY 241254Z AUTO 24007KT 7SM OVC005 08/08 A2998 RMK AO2 T00810076
Loading
Personal Weather Stations






























Interactive Weather Map
Tropical Storm Tracking
New forecast layout! Learn more

10-Day Weather Forecast

Advertisements
Track Severe Weather on mobile